Metar z połowy godziny Komunikat METAR ze strony awiacja.imgw.pl Metar G30 EPLL METAR EPLL 240430Z 12007KT 3500 BR FEW004 M03/M04 Q1023 =